sensor_id;sensor_type;location;lat;lon;timestamp;pressure;altitude;pressure_sealevel;temperature;humidity
33265;BME280;31404;53.974;-1.086;2023-05-09T00:00:41;101136.22;;;15.23;100.00
33265;BME280;31404;53.974;-1.086;2023-05-09T00:05:40;101133.76;;;15.22;100.00
33265;BME280;31404;53.974;-1.086;2023-05-09T00:10:40;101127.00;;;14.88;100.00
33265;BME280;31404;53.974;-1.086;2023-05-09T00:15:40;101113.69;;;15.25;100.00
33265;BME280;31404;53.974;-1.086;2023-05-09T00:20:40;101107.10;;;15.22;100.00
33265;BME280;31404;53.974;-1.086;2023-05-09T00:25:35;101104.35;;;15.72;100.00
33265;BME280;31404;53.974;-1.086;2023-05-09T00:30:40;101096.13;;;16.08;98.99
33265;BME280;31404;53.974;-1.086;2023-05-09T00:35:39;101094.61;;;16.42;96.12
33265;BME280;31404;53.974;-1.086;2023-05-09T00:40:40;101088.37;;;15.69;99.46
33265;BME280;31404;53.974;-1.086;2023-05-09T00:45:41;101079.61;;;15.74;98.73
33265;BME280;31404;53.974;-1.086;2023-05-09T00:50:40;101085.00;;;15.29;99.40
33265;BME280;31404;53.974;-1.086;2023-05-09T00:55:40;101069.95;;;16.10;96.08
33265;BME280;31404;53.974;-1.086;2023-05-09T01:00:40;101062.32;;;16.51;93.44
33265;BME280;31404;53.974;-1.086;2023-05-09T01:10:46;101045.21;;;15.63;96.76
33265;BME280;31404;53.974;-1.086;2023-05-09T01:30:41;101023.90;;;17.13;88.79
33265;BME280;31404;53.974;-1.086;2023-05-09T01:40:41;101015.46;;;16.66;89.51
33265;BME280;31404;53.974;-1.086;2023-05-09T01:45:40;101010.69;;;15.35;94.62
33265;BME280;31404;53.974;-1.086;2023-05-09T01:50:40;101009.23;;;15.17;95.79
33265;BME280;31404;53.974;-1.086;2023-05-09T01:55:40;101015.61;;;15.74;93.56
33265;BME280;31404;53.974;-1.086;2023-05-09T02:00:41;101017.01;;;17.00;88.47
33265;BME280;31404;53.974;-1.086;2023-05-09T02:05:41;101020.74;;;17.44;86.85
33265;BME280;31404;53.974;-1.086;2023-05-09T02:10:41;101018.99;;;17.09;86.93
33265;BME280;31404;53.974;-1.086;2023-05-09T02:15:41;101023.70;;;16.55;89.92
33265;BME280;31404;53.974;-1.086;2023-05-09T02:20:40;101024.59;;;16.35;91.06
33265;BME280;31404;53.974;-1.086;2023-05-09T02:25:36;101022.93;;;16.37;90.20
33265;BME280;31404;53.974;-1.086;2023-05-09T02:30:43;101018.59;;;15.66;92.37
33265;BME280;31404;53.974;-1.086;2023-05-09T02:35:42;101016.65;;;15.87;91.53
33265;BME280;31404;53.974;-1.086;2023-05-09T02:40:42;101015.34;;;16.08;91.58
33265;BME280;31404;53.974;-1.086;2023-05-09T02:45:40;101020.30;;;16.21;90.73
33265;BME280;31404;53.974;-1.086;2023-05-09T02:50:40;101020.80;;;16.28;89.73
33265;BME280;31404;53.974;-1.086;2023-05-09T02:55:40;101010.19;;;16.72;87.98
33265;BME280;31404;53.974;-1.086;2023-05-09T03:00:40;101011.02;;;16.12;90.28
33265;BME280;31404;53.974;-1.086;2023-05-09T03:05:40;101005.90;;;16.04;90.09
33265;BME280;31404;53.974;-1.086;2023-05-09T03:10:41;101011.39;;;14.83;94.55
33265;BME280;31404;53.974;-1.086;2023-05-09T03:15:40;101006.05;;;15.83;90.46
33265;BME280;31404;53.974;-1.086;2023-05-09T03:20:40;101004.26;;;15.07;93.54
33265;BME280;31404;53.974;-1.086;2023-05-09T03:25:40;100998.54;;;15.99;90.55
33265;BME280;31404;53.974;-1.086;2023-05-09T03:30:40;100990.23;;;15.09;93.84
33265;BME280;31404;53.974;-1.086;2023-05-09T03:35:40;100982.27;;;15.64;92.45
33265;BME280;31404;53.974;-1.086;2023-05-09T03:40:40;100977.78;;;16.51;89.38
33265;BME280;31404;53.974;-1.086;2023-05-09T03:45:37;100980.22;;;15.66;91.42
33265;BME280;31404;53.974;-1.086;2023-05-09T03:50:40;100977.39;;;15.71;92.14
33265;BME280;31404;53.974;-1.086;2023-05-09T03:55:40;100972.24;;;16.75;87.38
33265;BME280;31404;53.974;-1.086;2023-05-09T04:00:41;100979.90;;;17.04;86.41
33265;BME280;31404;53.974;-1.086;2023-05-09T04:05:40;100974.97;;;16.74;86.59
33265;BME280;31404;53.974;-1.086;2023-05-09T04:10:40;100966.50;;;16.70;88.20
33265;BME280;31404;53.974;-1.086;2023-05-09T04:15:40;100963.52;;;17.34;85.23
33265;BME280;31404;53.974;-1.086;2023-05-09T04:20:40;100969.82;;;17.20;85.50
33265;BME280;31404;53.974;-1.086;2023-05-09T04:25:40;100967.73;;;16.89;86.53
33265;BME280;31404;53.974;-1.086;2023-05-09T04:30:40;100969.80;;;15.44;92.91
33265;BME280;31404;53.974;-1.086;2023-05-09T04:35:40;100967.91;;;15.48;92.78
33265;BME280;31404;53.974;-1.086;2023-05-09T04:40:40;100972.25;;;15.48;93.76
33265;BME280;31404;53.974;-1.086;2023-05-09T04:45:40;100970.50;;;15.24;93.99
33265;BME280;31404;53.974;-1.086;2023-05-09T04:50:41;100965.90;;;16.63;88.59
33265;BME280;31404;53.974;-1.086;2023-05-09T04:55:39;100967.41;;;17.27;85.94
33265;BME280;31404;53.974;-1.086;2023-05-09T05:00:40;100970.29;;;16.13;90.03
33265;BME280;31404;53.974;-1.086;2023-05-09T05:05:40;100963.55;;;16.03;91.41
33265;BME280;31404;53.974;-1.086;2023-05-09T05:10:41;100963.50;;;15.70;91.66
33265;BME280;31404;53.974;-1.086;2023-05-09T05:15:40;100960.25;;;16.09;90.88
33265;BME280;31404;53.974;-1.086;2023-05-09T05:20:41;100964.61;;;16.18;89.58
33265;BME280;31404;53.974;-1.086;2023-05-09T05:25:44;100962.21;;;15.86;91.01
33265;BME280;31404;53.974;-1.086;2023-05-09T05:30:41;100953.43;;;16.33;89.75
33265;BME280;31404;53.974;-1.086;2023-05-09T05:35:40;100948.23;;;16.85;88.17
33265;BME280;31404;53.974;-1.086;2023-05-09T05:40:41;100938.39;;;16.08;90.80
33265;BME280;31404;53.974;-1.086;2023-05-09T05:45:40;100938.97;;;15.44;92.67
33265;BME280;31404;53.974;-1.086;2023-05-09T05:50:40;100934.77;;;14.78;96.64
33265;BME280;31404;53.974;-1.086;2023-05-09T05:55:40;100934.40;;;15.59;93.11
33265;BME280;31404;53.974;-1.086;2023-05-09T06:00:42;100927.62;;;16.25;90.57
33265;BME280;31404;53.974;-1.086;2023-05-09T06:05:41;100922.46;;;16.90;88.25
33265;BME280;31404;53.974;-1.086;2023-05-09T06:10:41;100924.81;;;15.62;92.53
33265;BME280;31404;53.974;-1.086;2023-05-09T06:15:41;100924.73;;;16.09;90.47
33265;BME280;31404;53.974;-1.086;2023-05-09T06:20:40;100915.48;;;16.08;90.46
33265;BME280;31404;53.974;-1.086;2023-05-09T06:25:40;100912.78;;;16.54;88.97
33265;BME280;31404;53.974;-1.086;2023-05-09T06:30:40;100905.55;;;16.45;90.13
33265;BME280;31404;53.974;-1.086;2023-05-09T06:35:40;100917.80;;;13.78;99.91
33265;BME280;31404;53.974;-1.086;2023-05-09T06:40:40;100913.42;;;13.22;100.00
33265;BME280;31404;53.974;-1.086;2023-05-09T06:45:40;100916.50;;;10.63;100.00
33265;BME280;31404;53.974;-1.086;2023-05-09T06:50:40;100908.62;;;10.56;100.00
33265;BME280;31404;53.974;-1.086;2023-05-09T06:55:35;100905.72;;;10.41;100.00
33265;BME280;31404;53.974;-1.086;2023-05-09T07:00:41;100907.08;;;11.08;100.00
33265;BME280;31404;53.974;-1.086;2023-05-09T07:05:40;100899.94;;;11.76;100.00
33265;BME280;31404;53.974;-1.086;2023-05-09T07:10:40;100899.39;;;10.73;100.00
33265;BME280;31404;53.974;-1.086;2023-05-09T07:15:36;100899.95;;;11.70;100.00
33265;BME280;31404;53.974;-1.086;2023-05-09T07:20:42;100909.75;;;11.37;100.00
33265;BME280;31404;53.974;-1.086;2023-05-09T07:25:41;100907.01;;;10.66;100.00
33265;BME280;31404;53.974;-1.086;2023-05-09T07:30:40;100910.89;;;9.99;100.00
33265;BME280;31404;53.974;-1.086;2023-05-09T07:35:40;100900.16;;;11.00;100.00
33265;BME280;31404;53.974;-1.086;2023-05-09T07:40:40;100900.87;;;11.42;100.00
33265;BME280;31404;53.974;-1.086;2023-05-09T07:45:41;100907.59;;;10.43;100.00
33265;BME280;31404;53.974;-1.086;2023-05-09T07:50:35;100904.80;;;10.30;100.00
33265;BME280;31404;53.974;-1.086;2023-05-09T07:55:40;100900.53;;;11.29;100.00
33265;BME280;31404;53.974;-1.086;2023-05-09T08:00:40;100905.03;;;9.57;100.00
33265;BME280;31404;53.974;-1.086;2023-05-09T08:05:39;100909.56;;;9.51;100.00
33265;BME280;31404;53.974;-1.086;2023-05-09T08:10:38;100912.19;;;9.64;100.00
33265;BME280;31404;53.974;-1.086;2023-05-09T08:15:40;100909.84;;;9.95;100.00
33265;BME280;31404;53.974;-1.086;2023-05-09T08:20:41;100908.58;;;10.24;100.00
33265;BME280;31404;53.974;-1.086;2023-05-09T08:25:39;100907.25;;;11.22;100.00
33265;BME280;31404;53.974;-1.086;2023-05-09T08:30:39;100913.07;;;10.68;100.00
33265;BME280;31404;53.974;-1.086;2023-05-09T08:35:39;100915.56;;;10.76;100.00
33265;BME280;31404;53.974;-1.086;2023-05-09T08:40:40;100921.33;;;11.68;100.00
33265;BME280;31404;53.974;-1.086;2023-05-09T08:45:41;100922.45;;;12.20;100.00
33265;BME280;31404;53.974;-1.086;2023-05-09T08:50:41;100927.00;;;12.04;100.00
33265;BME280;31404;53.974;-1.086;2023-05-09T08:55:40;100932.10;;;11.24;100.00
33265;BME280;31404;53.974;-1.086;2023-05-09T09:00:40;100927.64;;;12.55;100.00
33265;BME280;31404;53.974;-1.086;2023-05-09T09:05:42;100931.75;;;12.81;100.00
33265;BME280;31404;53.974;-1.086;2023-05-09T09:10:41;100935.21;;;12.16;100.00
33265;BME280;31404;53.974;-1.086;2023-05-09T09:15:43;100927.47;;;13.71;100.00
33265;BME280;31404;53.974;-1.086;2023-05-09T09:25:40;100924.07;;;11.94;100.00
33265;BME280;31404;53.974;-1.086;2023-05-09T09:35:40;100920.36;;;12.96;100.00
33265;BME280;31404;53.974;-1.086;2023-05-09T09:45:41;100916.68;;;12.71;100.00
33265;BME280;31404;53.974;-1.086;2023-05-09T09:50:40;100909.83;;;11.82;100.00
33265;BME280;31404;53.974;-1.086;2023-05-09T10:00:40;100906.71;;;13.10;100.00
33265;BME280;31404;53.974;-1.086;2023-05-09T10:05:40;100900.94;;;12.70;100.00
33265;BME280;31404;53.974;-1.086;2023-05-09T10:10:40;100887.55;;;13.07;100.00
33265;BME280;31404;53.974;-1.086;2023-05-09T10:15:40;100881.43;;;12.84;100.00
33265;BME280;31404;53.974;-1.086;2023-05-09T10:40:40;100859.84;;;14.07;96.64
33265;BME280;31404;53.974;-1.086;2023-05-09T10:45:40;100857.11;;;12.99;94.52
33265;BME280;31404;53.974;-1.086;2023-05-09T10:50:39;100856.20;;;13.95;92.07
33265;BME280;31404;53.974;-1.086;2023-05-09T11:00:41;100847.56;;;13.24;91.66
33265;BME280;31404;53.974;-1.086;2023-05-09T11:05:40;100837.41;;;14.07;92.27
33265;BME280;31404;53.974;-1.086;2023-05-09T11:10:41;100830.32;;;13.33;90.04
33265;BME280;31404;53.974;-1.086;2023-05-09T11:25:41;100815.98;;;14.40;87.87
33265;BME280;31404;53.974;-1.086;2023-05-09T11:30:41;100810.93;;;14.34;86.85
33265;BME280;31404;53.974;-1.086;2023-05-09T11:40:40;100802.22;;;14.21;87.56
33265;BME280;31404;53.974;-1.086;2023-05-09T11:45:40;100796.96;;;14.87;86.64
33265;BME280;31404;53.974;-1.086;2023-05-09T11:50:40;100789.39;;;15.37;81.57
33265;BME280;31404;53.974;-1.086;2023-05-09T11:55:41;100785.68;;;15.32;81.78
33265;BME280;31404;53.974;-1.086;2023-05-09T12:00:44;100778.30;;;15.75;81.94
33265;BME280;31404;53.974;-1.086;2023-05-09T12:05:41;100775.78;;;15.88;82.63
33265;BME280;31404;53.974;-1.086;2023-05-09T12:10:40;100779.19;;;14.98;82.78
33265;BME280;31404;53.974;-1.086;2023-05-09T12:15:40;100776.52;;;15.26;79.48
33265;BME280;31404;53.974;-1.086;2023-05-09T12:20:41;100774.34;;;15.98;79.34
33265;BME280;31404;53.974;-1.086;2023-05-09T12:30:40;100775.10;;;14.59;81.63
33265;BME280;31404;53.974;-1.086;2023-05-09T12:35:40;100768.84;;;14.93;83.62
33265;BME280;31404;53.974;-1.086;2023-05-09T12:40:41;100769.07;;;14.80;84.75
33265;BME280;31404;53.974;-1.086;2023-05-09T12:45:39;100769.62;;;14.27;84.73
33265;BME280;31404;53.974;-1.086;2023-05-09T12:55:40;100757.06;;;15.19;78.53
33265;BME280;31404;53.974;-1.086;2023-05-09T13:00:41;100758.74;;;14.36;84.58
33265;BME280;31404;53.974;-1.086;2023-05-09T13:05:40;100756.32;;;14.81;84.06
33265;BME280;31404;53.974;-1.086;2023-05-09T13:10:39;100750.22;;;15.43;75.97
33265;BME280;31404;53.974;-1.086;2023-05-09T13:15:41;100753.89;;;13.87;78.26
33265;BME280;31404;53.974;-1.086;2023-05-09T13:20:40;100749.26;;;15.36;76.40
33265;BME280;31404;53.974;-1.086;2023-05-09T13:25:40;100748.14;;;15.16;76.61
33265;BME280;31404;53.974;-1.086;2023-05-09T13:30:41;100755.14;;;14.89;77.25
33265;BME280;31404;53.974;-1.086;2023-05-09T13:35:40;100750.65;;;13.92;81.31
33265;BME280;31404;53.974;-1.086;2023-05-09T13:45:40;100754.04;;;14.51;81.69
33265;BME280;31404;53.974;-1.086;2023-05-09T13:50:41;100754.09;;;14.56;82.91
33265;BME280;31404;53.974;-1.086;2023-05-09T13:55:36;100744.15;;;15.62;78.77
33265;BME280;31404;53.974;-1.086;2023-05-09T14:00:40;100744.40;;;15.38;78.27
33265;BME280;31404;53.974;-1.086;2023-05-09T14:05:36;100744.55;;;16.07;75.39
33265;BME280;31404;53.974;-1.086;2023-05-09T14:10:40;100741.42;;;16.87;72.23
33265;BME280;31404;53.974;-1.086;2023-05-09T14:15:41;100726.37;;;15.58;78.29
33265;BME280;31404;53.974;-1.086;2023-05-09T14:20:46;100727.30;;;15.44;73.37
33265;BME280;31404;53.974;-1.086;2023-05-09T14:25:40;100717.11;;;15.43;72.38
33265;BME280;31404;53.974;-1.086;2023-05-09T14:30:40;100721.47;;;14.88;70.89
33265;BME280;31404;53.974;-1.086;2023-05-09T14:35:40;100714.84;;;16.47;76.64
33265;BME280;31404;53.974;-1.086;2023-05-09T14:40:40;100711.74;;;15.25;73.23
33265;BME280;31404;53.974;-1.086;2023-05-09T14:45:40;100715.04;;;16.28;69.93
33265;BME280;31404;53.974;-1.086;2023-05-09T14:50:40;100709.98;;;15.98;69.89
33265;BME280;31404;53.974;-1.086;2023-05-09T14:55:34;100711.84;;;17.03;67.93
33265;BME280;31404;53.974;-1.086;2023-05-09T15:00:40;100714.27;;;16.68;69.06
33265;BME280;31404;53.974;-1.086;2023-05-09T15:05:41;100715.13;;;16.66;68.18
33265;BME280;31404;53.974;-1.086;2023-05-09T15:10:40;100712.63;;;16.17;72.20
33265;BME280;31404;53.974;-1.086;2023-05-09T15:15:40;100711.86;;;17.17;70.51
33265;BME280;31404;53.974;-1.086;2023-05-09T15:20:40;100707.66;;;16.70;67.88
33265;BME280;31404;53.974;-1.086;2023-05-09T15:25:40;100697.09;;;18.29;60.42
33265;BME280;31404;53.974;-1.086;2023-05-09T15:30:40;100701.74;;;18.00;60.12
33265;BME280;31404;53.974;-1.086;2023-05-09T15:35:40;100705.64;;;17.02;62.40
33265;BME280;31404;53.974;-1.086;2023-05-09T15:40:39;100697.61;;;17.53;61.74
33265;BME280;31404;53.974;-1.086;2023-05-09T15:45:40;100692.24;;;17.70;58.80
33265;BME280;31404;53.974;-1.086;2023-05-09T15:50:41;100690.81;;;16.61;61.69
33265;BME280;31404;53.974;-1.086;2023-05-09T15:55:40;100681.06;;;18.14;58.25
33265;BME280;31404;53.974;-1.086;2023-05-09T16:00:40;100677.68;;;19.25;55.30
33265;BME280;31404;53.974;-1.086;2023-05-09T16:05:40;100679.32;;;20.17;54.44
33265;BME280;31404;53.974;-1.086;2023-05-09T16:10:41;100675.42;;;18.88;57.06
33265;BME280;31404;53.974;-1.086;2023-05-09T16:15:40;100672.73;;;19.56;65.19
33265;BME280;31404;53.974;-1.086;2023-05-09T16:20:41;100682.03;;;16.97;79.39
33265;BME280;31404;53.974;-1.086;2023-05-09T16:25:41;100679.41;;;18.66;68.10
33265;BME280;31404;53.974;-1.086;2023-05-09T16:30:40;100677.77;;;17.20;75.19
33265;BME280;31404;53.974;-1.086;2023-05-09T16:35:40;100682.67;;;14.72;92.22
33265;BME280;31404;53.974;-1.086;2023-05-09T16:40:35;100677.93;;;15.16;91.90
33265;BME280;31404;53.974;-1.086;2023-05-09T16:45:40;100678.33;;;15.11;91.96
33265;BME280;31404;53.974;-1.086;2023-05-09T16:50:45;100689.61;;;14.99;90.38
33265;BME280;31404;53.974;-1.086;2023-05-09T16:55:40;100695.19;;;17.43;80.68
33265;BME280;31404;53.974;-1.086;2023-05-09T17:00:40;100699.93;;;17.11;80.92
33265;BME280;31404;53.974;-1.086;2023-05-09T17:05:40;100697.93;;;17.22;79.67
33265;BME280;31404;53.974;-1.086;2023-05-09T17:10:41;100696.78;;;19.12;74.65
33265;BME280;31404;53.974;-1.086;2023-05-09T17:20:40;100709.75;;;16.08;90.98
33265;BME280;31404;53.974;-1.086;2023-05-09T17:25:40;100718.80;;;16.72;84.75
33265;BME280;31404;53.974;-1.086;2023-05-09T17:30:40;100713.17;;;15.93;82.52
33265;BME280;31404;53.974;-1.086;2023-05-09T17:35:37;100715.48;;;17.31;76.07
33265;BME280;31404;53.974;-1.086;2023-05-09T17:40:40;100719.11;;;16.36;76.71
33265;BME280;31404;53.974;-1.086;2023-05-09T17:45:40;100705.08;;;16.91;74.85
33265;BME280;31404;53.974;-1.086;2023-05-09T17:50:45;100703.65;;;18.16;68.91
33265;BME280;31404;53.974;-1.086;2023-05-09T18:00:40;100732.06;;;12.03;92.35
33265;BME280;31404;53.974;-1.086;2023-05-09T18:05:43;100737.72;;;11.82;95.36
33265;BME280;31404;53.974;-1.086;2023-05-09T18:10:40;100739.74;;;13.50;86.81
33265;BME280;31404;53.974;-1.086;2023-05-09T18:15:40;100745.90;;;12.22;89.56
33265;BME280;31404;53.974;-1.086;2023-05-09T18:20:40;100750.21;;;13.59;85.82
33265;BME280;31404;53.974;-1.086;2023-05-09T18:25:39;100770.78;;;13.88;87.23
33265;BME280;31404;53.974;-1.086;2023-05-09T18:30:40;100774.94;;;14.56;88.80
33265;BME280;31404;53.974;-1.086;2023-05-09T18:35:40;100779.34;;;12.70;96.86
33265;BME280;31404;53.974;-1.086;2023-05-09T18:40:40;100776.10;;;11.98;97.69
33265;BME280;31404;53.974;-1.086;2023-05-09T18:45:40;100783.97;;;11.29;98.19
33265;BME280;31404;53.974;-1.086;2023-05-09T18:50:40;100792.85;;;12.59;91.51
33265;BME280;31404;53.974;-1.086;2023-05-09T18:55:40;100796.05;;;11.75;96.77
33265;BME280;31404;53.974;-1.086;2023-05-09T19:00:40;100809.11;;;10.46;100.00
33265;BME280;31404;53.974;-1.086;2023-05-09T19:05:40;100816.42;;;11.17;96.12
33265;BME280;31404;53.974;-1.086;2023-05-09T19:10:41;100826.83;;;10.74;100.00
33265;BME280;31404;53.974;-1.086;2023-05-09T19:15:40;100827.46;;;10.71;100.00
33265;BME280;31404;53.974;-1.086;2023-05-09T19:20:40;100822.84;;;11.79;94.97
33265;BME280;31404;53.974;-1.086;2023-05-09T19:25:40;100829.10;;;12.75;88.97
33265;BME280;31404;53.974;-1.086;2023-05-09T19:30:40;100832.25;;;13.60;85.24
33265;BME280;31404;53.974;-1.086;2023-05-09T19:35:40;100835.34;;;15.69;76.74
33265;BME280;31404;53.974;-1.086;2023-05-09T19:40:40;100838.18;;;14.01;81.33
33265;BME280;31404;53.974;-1.086;2023-05-09T19:45:40;100832.20;;;14.24;81.06
33265;BME280;31404;53.974;-1.086;2023-05-09T19:50:41;100833.91;;;14.12;81.74
33265;BME280;31404;53.974;-1.086;2023-05-09T19:55:40;100832.49;;;14.88;78.10
33265;BME280;31404;53.974;-1.086;2023-05-09T20:00:40;100833.44;;;15.50;76.65
33265;BME280;31404;53.974;-1.086;2023-05-09T20:05:40;100839.52;;;14.72;79.84
33265;BME280;31404;53.974;-1.086;2023-05-09T20:10:39;100842.02;;;14.91;77.74
33265;BME280;31404;53.974;-1.086;2023-05-09T20:15:40;100834.34;;;15.20;77.26
33265;BME280;31404;53.974;-1.086;2023-05-09T20:20:42;100825.21;;;16.08;72.70
33265;BME280;31404;53.974;-1.086;2023-05-09T20:25:40;100823.14;;;16.02;70.81
33265;BME280;31404;53.974;-1.086;2023-05-09T20:30:35;100824.34;;;16.99;68.32
33265;BME280;31404;53.974;-1.086;2023-05-09T20:35:42;100828.66;;;15.67;70.36
33265;BME280;31404;53.974;-1.086;2023-05-09T20:40:41;100826.10;;;16.35;68.77
33265;BME280;31404;53.974;-1.086;2023-05-09T20:45:36;100822.91;;;16.39;68.57
33265;BME280;31404;53.974;-1.086;2023-05-09T20:50:40;100824.69;;;14.37;74.42
33265;BME280;31404;53.974;-1.086;2023-05-09T20:55:40;100820.33;;;14.76;73.66
33265;BME280;31404;53.974;-1.086;2023-05-09T21:00:41;100823.13;;;15.15;72.51
33265;BME280;31404;53.974;-1.086;2023-05-09T21:05:42;100828.06;;;15.24;72.67
33265;BME280;31404;53.974;-1.086;2023-05-09T21:10:41;100835.98;;;14.89;72.67
33265;BME280;31404;53.974;-1.086;2023-05-09T21:15:36;100838.68;;;14.48;75.12
33265;BME280;31404;53.974;-1.086;2023-05-09T21:20:40;100841.35;;;15.11;73.71
33265;BME280;31404;53.974;-1.086;2023-05-09T21:25:40;100839.84;;;14.12;75.77
33265;BME280;31404;53.974;-1.086;2023-05-09T21:30:35;100841.09;;;13.32;80.11
33265;BME280;31404;53.974;-1.086;2023-05-09T21:35:41;100836.20;;;14.09;79.39
33265;BME280;31404;53.974;-1.086;2023-05-09T21:40:40;100839.77;;;13.80;80.95
33265;BME280;31404;53.974;-1.086;2023-05-09T21:45:42;100838.89;;;10.64;94.03
33265;BME280;31404;53.974;-1.086;2023-05-09T21:50:35;100834.72;;;12.09;90.97
33265;BME280;31404;53.974;-1.086;2023-05-09T21:55:40;100841.31;;;10.55;100.00
33265;BME280;31404;53.974;-1.086;2023-05-09T22:00:40;100845.57;;;9.48;100.00
33265;BME280;31404;53.974;-1.086;2023-05-09T22:05:35;100845.05;;;9.55;100.00
33265;BME280;31404;53.974;-1.086;2023-05-09T22:10:40;100839.54;;;10.26;100.00
33265;BME280;31404;53.974;-1.086;2023-05-09T22:15:41;100840.94;;;9.29;100.00
33265;BME280;31404;53.974;-1.086;2023-05-09T22:20:40;100831.30;;;11.72;97.86
33265;BME280;31404;53.974;-1.086;2023-05-09T22:25:40;100840.40;;;8.55;100.00
33265;BME280;31404;53.974;-1.086;2023-05-09T22:30:40;100843.51;;;8.39;100.00
33265;BME280;31404;53.974;-1.086;2023-05-09T22:35:40;100837.25;;;10.62;100.00
33265;BME280;31404;53.974;-1.086;2023-05-09T22:40:40;100836.80;;;11.88;93.67
33265;BME280;31404;53.974;-1.086;2023-05-09T22:45:34;100842.15;;;10.13;99.90
33265;BME280;31404;53.974;-1.086;2023-05-09T22:50:40;100840.55;;;10.77;97.15
33265;BME280;31404;53.974;-1.086;2023-05-09T22:55:36;100839.26;;;11.56;93.25
33265;BME280;31404;53.974;-1.086;2023-05-09T23:00:40;100843.06;;;10.95;94.03
33265;BME280;31404;53.974;-1.086;2023-05-09T23:05:42;100845.37;;;11.21;91.00
33265;BME280;31404;53.974;-1.086;2023-05-09T23:10:41;100840.68;;;13.44;82.70
33265;BME280;31404;53.974;-1.086;2023-05-09T23:15:40;100846.43;;;10.65;93.02
33265;BME280;31404;53.974;-1.086;2023-05-09T23:20:40;100846.95;;;9.99;95.50
33265;BME280;31404;53.974;-1.086;2023-05-09T23:25:40;100847.21;;;11.36;90.07
33265;BME280;31404;53.974;-1.086;2023-05-09T23:30:34;100853.12;;;10.45;95.44
33265;BME280;31404;53.974;-1.086;2023-05-09T23:35:40;100857.05;;;10.08;98.99
33265;BME280;31404;53.974;-1.086;2023-05-09T23:40:35;100862.93;;;9.61;100.00
33265;BME280;31404;53.974;-1.086;2023-05-09T23:45:42;100860.00;;;10.36;97.39
33265;BME280;31404;53.974;-1.086;2023-05-09T23:50:40;100868.54;;;8.54;100.00
33265;BME280;31404;53.974;-1.086;2023-05-09T23:55:40;100869.52;;;8.23;100.00
